Time;durP1;ratioP1;P1;durP2;ratioP2;P2;SDS_P1;SDS_P2;PMS_P1;PMS_P2;Temp;Humidity;BMP_temperature;BMP_pressure;BME280_temperature;BME280_humidity;BME280_pressure;Samples;Min_cycle;Max_cycle;Signal;HPM_P1;HPM_P2
2022/05/17 00:01:51;;;;;;;5.38;4.15;;;;;;;18.80;66.33;98456.25;6257847;22;20680;-56
2022/05/17 00:04:17;;;;;;;4.40;3.92;;;;;;;18.76;66.46;98463.59;6264865;22;20209;-57
2022/05/17 00:06:42;;;;;;;5.28;4.43;;;;;;;18.64;66.82;98467.44;6268487;22;20235;-57
2022/05/17 00:09:08;;;;;;;6.75;3.90;;;;;;;18.46;67.81;98461.44;6270351;22;20503;-56
2022/05/17 00:11:33;;;;;;;4.20;3.90;;;;;;;18.41;67.20;98462.88;6270498;22;20207;-57
2022/05/17 00:13:59;;;;;;;4.40;4.00;;;;;;;18.36;67.43;98462.50;6270381;22;20566;-56
2022/05/17 00:16:26;;;;;;;5.78;4.03;;;;;;;18.41;67.24;98473.34;6269728;22;20257;-56
2022/05/17 00:18:52;;;;;;;4.78;4.28;;;;;;;18.49;67.42;98471.59;6267076;22;20190;-56
2022/05/17 00:21:18;;;;;;;4.53;4.20;;;;;;;18.53;69.17;98472.13;6256456;22;20144;-57
2022/05/17 00:23:44;;;;;;;9.32;4.65;;;;;;;18.53;69.80;98454.59;6257435;22;20182;-57
2022/05/17 00:26:10;;;;;;;4.75;4.20;;;;;;;18.57;70.15;98461.19;6268262;22;20200;-57
2022/05/17 00:28:37;;;;;;;4.50;4.10;;;;;;;18.58;70.90;98457.59;6268288;22;20538;-56
2022/05/17 00:31:06;;;;;;;4.60;4.18;;;;;;;18.61;71.36;98453.84;6269971;22;20586;-56
2022/05/17 00:33:32;;;;;;;7.82;4.63;;;;;;;18.55;72.74;98449.22;6270041;22;20172;-56
2022/05/17 00:35:57;;;;;;;4.85;4.28;;;;;;;18.48;72.84;98451.59;6270408;22;20148;-56
2022/05/17 00:38:23;;;;;;;6.22;4.65;;;;;;;18.40;68.25;98440.25;6270024;22;20209;-57
2022/05/17 00:40:48;;;;;;;4.97;4.47;;;;;;;18.46;68.00;98440.47;6260428;22;20198;-56
2022/05/17 00:43:26;;;;;;;4.85;4.28;;;;;;;18.35;68.16;98437.25;6257221;22;20514;-57
2022/05/17 00:45:52;;;;;;;4.43;4.13;;;;;;;18.23;68.63;98448.91;6260094;22;20147;-56
2022/05/17 00:48:19;;;;;;;4.63;4.22;;;;;;;18.13;68.89;98458.69;6269831;22;20222;-56
2022/05/17 00:50:49;;;;;;;4.18;3.95;;;;;;;18.02;69.61;98456.28;6269967;22;20152;-56
2022/05/17 00:53:22;;;;;;;4.80;4.25;;;;;;;18.00;69.10;98451.19;6270012;22;20156;-56
2022/05/17 00:55:52;;;;;;;4.55;4.20;;;;;;;17.93;69.75;98446.69;6269847;22;20140;-56
2022/05/17 00:58:20;;;;;;;6.25;4.70;;;;;;;18.02;69.61;98448.44;6269936;22;20158;-56
2022/05/17 01:01:08;;;;;;;4.80;4.40;;;;;;;17.98;69.48;98449.69;6267210;22;20687;-56
2022/05/17 01:03:38;;;;;;;5.10;4.60;;;;;;;17.88;69.92;98449.78;6256029;22;20178;-57
2022/05/17 01:06:04;;;;;;;4.90;4.50;;;;;;;17.87;70.19;98452.53;6258898;22;20490;-57
2022/05/17 01:08:29;;;;;;;5.00;4.65;;;;;;;17.85;70.53;98450.06;6268442;22;20144;-57
2022/05/17 01:10:55;;;;;;;5.47;5.03;;;;;;;17.85;70.30;98454.47;6269821;22;20180;-57
2022/05/17 01:16:08;;;;;;;4.35;3.95;;;;;;;17.92;69.68;98451.13;6269564;22;20613;-57
2022/05/17 01:18:37;;;;;;;4.82;4.43;;;;;;;17.80;70.75;98448.88;6269256;22;20644;-57
2022/05/17 01:21:02;;;;;;;5.10;4.38;;;;;;;17.85;70.52;98447.44;6269779;22;20231;-57
2022/05/17 01:23:30;;;;;;;5.13;4.70;;;;;;;17.78;70.67;98453.44;6257424;22;20635;-57
2022/05/17 01:25:56;;;;;;;4.70;4.30;;;;;;;17.77;70.46;98444.75;6256807;22;20648;-57
2022/05/17 01:28:25;;;;;;;4.68;4.28;;;;;;;17.83;70.35;98438.13;6263932;22;20144;-57
2022/05/17 01:30:51;;;;;;;4.50;4.20;;;;;;;17.82;70.25;98442.50;6269310;22;20164;-57
2022/05/17 01:33:19;;;;;;;6.53;4.43;;;;;;;17.83;70.41;98433.69;6269626;22;20194;-57
2022/05/17 01:35:45;;;;;;;4.43;4.03;;;;;;;17.70;70.90;98435.03;6269565;22;20160;-57
2022/05/17 01:38:11;;;;;;;4.68;4.32;;;;;;;17.52;71.86;98434.19;6269383;22;20647;-57
2022/05/17 01:40:37;;;;;;;4.80;4.28;;;;;;;17.58;71.65;98430.97;6269448;22;20179;-57
2022/05/17 01:43:03;;;;;;;5.18;4.78;;;;;;;17.50;72.44;98436.13;6265642;22;20148;-57
2022/05/17 01:45:29;;;;;;;5.13;4.65;;;;;;;17.45;72.45;98436.59;6256194;22;20227;-57
2022/05/17 01:47:54;;;;;;;4.50;4.10;;;;;;;17.40;72.67;98428.34;6257284;22;20219;-57
2022/05/17 01:50:21;;;;;;;4.57;4.30;;;;;;;17.30;73.37;98422.31;6267639;22;20544;-57
2022/05/17 01:52:47;;;;;;;5.25;4.85;;;;;;;17.24;73.84;98420.28;6269444;22;20186;-57
2022/05/17 01:55:12;;;;;;;4.55;4.25;;;;;;;17.21;74.11;98424.97;6269420;22;20151;-57
2022/05/17 01:57:38;;;;;;;5.03;4.63;;;;;;;17.22;74.43;98419.63;6269785;22;20144;-57
2022/05/17 02:00:09;;;;;;;5.40;4.70;;;;;;;17.24;74.48;98419.44;6269348;22;20635;-57
2022/05/17 02:02:36;;;;;;;5.22;4.72;;;;;;;17.24;73.77;98422.06;6269729;22;20465;-57
2022/05/17 02:05:03;;;;;;;4.88;4.47;;;;;;;17.27;73.81;98416.56;6259417;22;20155;-57
2022/05/17 02:07:29;;;;;;;5.85;4.40;;;;;;;17.22;73.97;98414.38;6256767;22;20214;-57
2022/05/17 02:09:54;;;;;;;5.22;4.80;;;;;;;17.18;74.21;98406.94;6260963;22;20215;-57
2022/05/17 02:12:19;;;;;;;6.13;4.55;;;;;;;17.17;74.24;98406.16;6269608;22;20174;-57
2022/05/17 02:14:45;;;;;;;4.78;4.38;;;;;;;17.26;73.60;98401.84;6269675;22;20148;-57
2022/05/17 02:17:10;;;;;;;6.65;4.72;;;;;;;17.33;72.94;98395.03;6269155;22;20195;-57
2022/05/17 02:19:36;;;;;;;4.90;4.50;;;;;;;17.21;73.22;98385.75;6269308;22;20176;-56
2022/05/17 02:22:02;;;;;;;4.57;4.25;;;;;;;17.33;73.14;98395.03;6269217;22;20206;-57
2022/05/17 02:24:27;;;;;;;6.05;4.60;;;;;;;17.37;72.21;98386.75;6269314;22;20219;-57
2022/05/17 02:26:54;;;;;;;5.43;4.68;;;;;;;17.33;72.71;98384.56;6255202;22;20186;-57
2022/05/17 02:29:19;;;;;;;4.60;4.30;;;;;;;17.24;73.45;98386.28;6257376;22;20155;-57
2022/05/17 02:31:45;;;;;;;4.72;4.43;;;;;;;17.24;73.05;98386.28;6265113;22;20148;-57
2022/05/17 02:34:11;;;;;;;4.72;4.38;;;;;;;17.19;73.09;98392.94;6269308;22;20171;-57
2022/05/17 02:36:36;;;;;;;6.25;4.40;;;;;;;17.27;73.09;98398.25;6269577;22;20152;-57
2022/05/17 02:39:01;;;;;;;4.97;4.57;;;;;;;17.31;72.71;98407.44;6269113;22;20259;-57
2022/05/17 02:41:27;;;;;;;4.90;4.50;;;;;;;17.27;72.92;98404.31;6268980;22;20586;-57
2022/05/17 02:43:53;;;;;;;5.10;4.60;;;;;;;17.20;73.38;98410.25;6269172;22;20152;-57
2022/05/17 02:46:19;;;;;;;5.57;4.25;;;;;;;17.25;73.16;98408.03;6263965;22;20538;-57
2022/05/17 02:48:44;;;;;;;4.95;4.55;;;;;;;17.30;73.57;98397.94;6255305;22;20158;-57
2022/05/17 02:51:16;;;;;;;4.93;4.53;;;;;;;17.29;74.39;98398.91;6257825;22;20226;-57
2022/05/17 02:53:42;;;;;;;4.88;4.53;;;;;;;17.16;74.61;98399.28;6241101;22;20572;-57
2022/05/17 02:56:08;;;;;;;4.75;4.45;;;;;;;17.14;73.97;98403.00;6269109;22;20230;-57
2022/05/17 02:58:34;;;;;;;6.07;5.13;;;;;;;17.03;74.26;98392.75;6268795;22;20168;-57
2022/05/17 03:01:00;;;;;;;4.82;4.43;;;;;;;17.15;74.06;98391.56;6269172;22;20156;-57
2022/05/17 03:03:26;;;;;;;7.03;4.75;;;;;;;17.12;74.29;98394.47;6268781;22;20222;-56
2022/05/17 03:05:51;;;;;;;4.63;4.32;;;;;;;17.23;73.50;98399.50;6269145;22;20578;-56
2022/05/17 03:08:17;;;;;;;5.28;4.70;;;;;;;17.25;73.71;98413.28;6259875;22;20205;-57
2022/05/17 03:10:43;;;;;;;4.78;4.40;;;;;;;17.30;73.00;98411.00;6258057;22;20672;-57
2022/05/17 03:13:13;;;;;;;5.20;4.70;;;;;;;17.30;73.34;98405.78;6263460;22;20469;-56
2022/05/17 03:15:38;;;;;;;5.85;5.10;;;;;;;17.13;74.23;98415.25;6270855;22;21781;-57
2022/05/17 03:18:04;;;;;;;5.60;5.10;;;;;;;17.13;74.32;98414.44;6270768;22;20160;-57
2022/05/17 03:20:30;;;;;;;4.97;4.35;;;;;;;17.16;73.93;98419.38;6270982;22;20172;-57
2022/05/17 03:22:55;;;;;;;4.93;4.53;;;;;;;17.09;74.47;98418.31;6270809;22;20163;-57
2022/05/17 03:25:23;;;;;;;4.82;4.43;;;;;;;17.07;75.08;98415.00;6270720;22;20493;-57
2022/05/17 03:27:49;;;;;;;5.20;4.72;;;;;;;17.16;74.28;98416.75;6267292;22;20190;-57
2022/05/17 03:30:15;;;;;;;4.97;4.53;;;;;;;17.21;73.84;98417.13;6256814;22;20144;-57
2022/05/17 03:32:41;;;;;;;5.50;4.10;;;;;;;17.26;74.06;98420.13;6258975;22;20601;-57
2022/05/17 03:35:08;;;;;;;6.13;4.53;;;;;;;17.30;73.26;98422.31;6267284;22;20147;-57
2022/05/17 03:37:33;;;;;;;5.10;4.70;;;;;;;17.34;73.38;98413.22;6270954;22;20547;-57
2022/05/17 03:39:58;;;;;;;4.70;4.40;;;;;;;17.35;73.54;98424.47;6270692;22;20175;-57
2022/05/17 03:42:24;;;;;;;4.93;4.50;;;;;;;17.32;73.42;98422.97;6269149;22;20148;-57
2022/05/17 03:44:49;;;;;;;5.03;4.68;;;;;;;17.31;73.55;98420.53;6270983;22;20185;-57
2022/05/17 03:47:16;;;;;;;4.75;4.45;;;;;;;17.31;73.66;98429.19;6268587;22;20594;-57
2022/05/17 03:49:41;;;;;;;4.32;3.92;;;;;;;17.43;73.56;98427.22;6264087;22;20187;-57
2022/05/17 03:52:08;;;;;;;5.05;4.65;;;;;;;17.36;73.25;98429.56;6257211;22;20645;-57
2022/05/17 03:54:35;;;;;;;4.80;4.40;;;;;;;17.46;73.90;98432.16;6259637;22;20143;-56
2022/05/17 03:57:01;;;;;;;4.70;4.40;;;;;;;17.60;73.97;98435.09;6270658;22;20152;-57
2022/05/17 03:59:26;;;;;;;4.93;4.60;;;;;;;17.76;74.85;98439.66;6270525;22;20524;-57
2022/05/17 04:01:51;;;;;;;4.75;4.32;;;;;;;17.87;73.75;98436.81;6270595;22;20408;-57
2022/05/17 04:04:17;;;;;;;4.63;4.22;;;;;;;17.95;72.27;98429.06;6270418;22;20231;-58
2022/05/17 04:06:43;;;;;;;5.10;4.57;;;;;;;18.03;71.47;98431.75;6270547;22;20148;-57
2022/05/17 04:09:10;;;;;;;4.68;3.97;;;;;;;18.09;71.33;98436.38;6270510;22;20608;-57
2022/05/17 04:11:36;;;;;;;7.53;4.60;;;;;;;18.09;71.01;98439.00;6258690;22;20482;-57
2022/05/17 04:14:03;;;;;;;4.90;4.50;;;;;;;18.15;71.34;98431.38;6258152;22;20152;-57
2022/05/17 04:16:33;;;;;;;4.45;4.15;;;;;;;18.24;71.14;98445.34;6264306;22;20246;-57
2022/05/17 04:18:59;;;;;;;4.72;4.35;;;;;;;18.31;72.02;98441.13;6270283;22;20168;-57
2022/05/17 04:21:25;;;;;;;8.23;5.18;;;;;;;18.34;74.68;98446.09;6270369;22;20154;-57
2022/05/17 04:23:50;;;;;;;6.38;5.18;;;;;;;18.47;75.22;98441.31;6270403;22;20148;-58
2022/05/17 04:26:16;;;;;;;4.90;4.50;;;;;;;18.48;71.60;98442.94;6270358;22;20194;-57
2022/05/17 04:28:41;;;;;;;4.90;4.50;;;;;;;18.56;71.20;98435.13;6270078;22;20628;-57
2022/05/17 04:31:07;;;;;;;5.25;4.72;;;;;;;18.67;69.45;98424.38;6268102;22;20199;-56
2022/05/17 04:33:32;;;;;;;4.72;4.25;;;;;;;18.61;69.50;98433.69;6256698;22;20182;-57
2022/05/17 04:35:58;;;;;;;4.20;3.90;;;;;;;18.68;70.68;98433.88;6258942;22;20518;-57
2022/05/17 04:38:23;;;;;;;5.18;4.63;;;;;;;18.57;70.00;98448.06;6267390;22;20147;-57
2022/05/17 04:40:49;;;;;;;8.27;4.40;;;;;;;18.56;70.18;98440.38;6270085;22;20697;-57
2022/05/17 04:43:14;;;;;;;7.38;4.72;;;;;;;18.56;70.03;98441.19;6270006;22;20147;-57
2022/05/17 04:45:44;;;;;;;5.93;4.28;;;;;;;18.71;68.90;98436.22;6270448;22;20152;-57
2022/05/17 04:48:10;;;;;;;4.80;4.32;;;;;;;18.74;70.04;98425.41;6270160;22;20555;-57
2022/05/17 04:50:37;;;;;;;3.92;3.67;;;;;;;18.87;69.65;98431.03;6269993;22;20144;-57
2022/05/17 04:53:04;;;;;;;6.45;4.38;;;;;;;18.94;68.45;98432.09;6261977;22;20235;-57
2022/05/17 04:55:29;;;;;;;4.53;4.15;;;;;;;18.96;69.13;98427.50;6257297;22;20144;-57
2022/05/17 04:57:55;;;;;;;5.20;4.70;;;;;;;19.06;70.09;98430.81;6260342;22;20155;-56
2022/05/17 05:00:23;;;;;;;4.57;4.13;;;;;;;19.11;69.01;98425.94;6269746;22;20175;-56
2022/05/17 05:02:49;;;;;;;4.75;4.35;;;;;;;19.18;68.15;98427.75;6270613;22;20170;-56
2022/05/17 05:05:15;;;;;;;4.00;3.53;;;;;;;19.29;67.90;98431.94;6269834;22;20144;-57
2022/05/17 05:07:41;;;;;;;6.65;4.53;;;;;;;19.43;67.01;98428.69;6269721;22;20152;-57
2022/05/17 05:10:07;;;;;;;4.65;3.60;;;;;;;19.41;67.26;98426.22;6270209;22;20151;-57
2022/05/17 05:12:34;;;;;;;4.82;4.07;;;;;;;19.49;67.06;98436.75;6269787;22;20148;-57
2022/05/17 05:15:00;;;;;;;5.07;4.25;;;;;;;19.49;69.72;98438.53;6258139;22;20160;-57
2022/05/17 05:17:32;;;;;;;4.53;4.05;;;;;;;19.63;67.05;98435.28;6258397;22;20184;-57
2022/05/17 05:19:58;;;;;;;5.03;4.53;;;;;;;19.76;67.27;98433.84;6269755;22;20180;-57
2022/05/17 05:22:25;;;;;;;4.72;4.25;;;;;;;19.81;65.49;98436.81;6269652;22;20147;-57
2022/05/17 05:24:51;;;;;;;4.07;3.78;;;;;;;19.90;65.60;98435.84;6269514;22;20158;-57
2022/05/17 05:27:17;;;;;;;6.18;3.97;;;;;;;20.01;65.49;98438.16;6269681;22;20148;-57
2022/05/17 05:29:42;;;;;;;4.03;3.72;;;;;;;20.13;65.27;98442.16;6269612;22;20140;-57
2022/05/17 05:32:08;;;;;;;4.90;3.92;;;;;;;20.21;64.87;98447.38;6269234;22;20242;-57
2022/05/17 05:34:34;;;;;;;4.40;3.75;;;;;;;20.27;64.02;98451.97;6256539;22;20151;-57
2022/05/17 05:37:00;;;;;;;5.43;4.10;;;;;;;20.43;63.57;98448.53;6257694;22;20602;-57
2022/05/17 05:39:26;;;;;;;5.82;4.10;;;;;;;20.61;63.43;98457.06;6263583;22;20702;-57
2022/05/17 05:41:52;;;;;;;5.20;4.70;;;;;;;20.75;63.88;98449.31;6269458;22;20160;-57
2022/05/17 05:44:19;;;;;;;6.95;4.43;;;;;;;20.89;64.12;98453.91;6269533;22;20155;-57
2022/05/17 05:46:44;;;;;;;4.22;3.90;;;;;;;21.07;62.69;98458.94;6269595;22;20163;-57
2022/05/17 05:49:10;;;;;;;5.35;4.00;;;;;;;21.16;61.68;98456.13;6269495;22;20144;-57
2022/05/17 05:54:10;;;;;;;5.63;4.40;;;;;;;21.55;61.25;98458.75;6251696;22;20504;-59
2022/05/17 05:56:38;;;;;;;11.98;5.65;;;;;;;21.75;61.31;98466.09;6226454;23;20157;-60
2022/05/17 05:59:03;;;;;;;8.50;5.38;;;;;;;21.95;60.47;98466.44;6229126;22;20180;-59
2022/05/17 06:01:29;;;;;;;11.82;6.10;;;;;;;22.07;60.63;98460.63;6238519;22;20156;-59
2022/05/17 06:03:54;;;;;;;12.10;5.82;;;;;;;22.20;59.37;98458.19;6238656;22;20227;-59
2022/05/17 06:06:20;;;;;;;5.50;4.75;;;;;;;22.34;58.10;98461.88;6238928;22;20160;-60
2022/05/17 06:08:45;;;;;;;8.10;5.63;;;;;;;22.46;58.09;98465.78;6238679;23;20160;-60
2022/05/17 06:11:10;;;;;;;5.65;5.00;;;;;;;22.59;58.04;98465.97;6238745;23;20263;-60
2022/05/17 06:13:36;;;;;;;8.07;4.57;;;;;;;22.68;56.28;98459.63;6238434;23;20208;-59
2022/05/17 06:16:01;;;;;;;8.88;5.13;;;;;;;;;;6227073;22;20253;-59
2022/05/17 06:18:27;;;;;;;6.80;4.30;;;;;;;22.85;55.66;98458.47;6225924;23;20161;-60
2022/05/17 06:20:54;;;;;;;4.53;4.22;;;;;;;22.84;55.23;98462.94;6231998;22;20180;-59
2022/05/17 06:23:22;;;;;;;4.43;3.50;;;;;;;22.67;55.02;98458.00;6238992;22;20183;-59
2022/05/17 06:25:49;;;;;;;5.63;4.15;;;;;;;22.78;55.06;98457.56;6238790;22;20176;-60
2022/05/17 06:28:15;;;;;;;4.10;3.50;;;;;;;22.93;54.70;98458.38;6238563;22;20144;-61
2022/05/17 06:30:43;;;;;;;6.60;4.28;;;;;;;22.88;54.49;98450.19;6238680;22;20605;-60
2022/05/17 06:33:10;;;;;;;6.57;5.65;;;;;;;22.91;54.89;98449.84;6238811;22;20148;-60
2022/05/17 06:35:41;;;;;;;5.30;3.83;;;;;;;23.02;54.25;98444.13;6235404;22;20159;-61
2022/05/17 06:38:07;;;;;;;7.03;3.78;;;;;;;22.99;53.96;98444.47;6225636;22;20366;-60
2022/05/17 06:40:33;;;;;;;4.28;3.88;;;;;;;23.04;54.79;98447.38;6227645;22;20179;-61
2022/05/17 06:42:59;;;;;;;3.72;3.42;;;;;;;23.06;53.33;98440.09;6237896;22;20149;-60
2022/05/17 06:45:25;;;;;;;4.10;3.75;;;;;;;23.11;53.80;98445.66;6240694;23;20155;-61
2022/05/17 06:47:50;;;;;;;6.20;3.72;;;;;;;23.12;53.46;98444.63;6239008;23;20163;-61
2022/05/17 06:50:15;;;;;;;4.32;3.92;;;;;;;23.22;53.52;98453.13;6240271;23;20152;-60
2022/05/17 06:52:41;;;;;;;4.20;3.90;;;;;;;23.26;53.44;98449.13;6240419;22;20601;-60
2022/05/17 06:55:07;;;;;;;7.18;3.75;;;;;;;23.40;53.24;98448.28;6240557;22;20524;-61
2022/05/17 06:57:33;;;;;;;5.50;3.67;;;;;;;23.57;52.76;98449.72;6232016;22;20165;-60
2022/05/17 06:59:59;;;;;;;3.72;3.42;;;;;;;23.66;51.37;98451.25;6227191;22;20472;-60
2022/05/17 07:02:24;;;;;;;5.95;3.85;;;;;;;23.67;51.15;98449.25;6231288;22;20152;-60
2022/05/17 07:04:50;;;;;;;3.90;3.50;;;;;;;23.77;50.86;98449.78;6240400;23;20155;-60
2022/05/17 07:07:16;;;;;;;5.60;3.83;;;;;;;23.68;51.26;98456.16;6240235;23;20234;-60
2022/05/17 07:13:07;;;;;;;7.18;3.80;;;;;;;23.85;51.17;98448.84;6240131;22;20235;-61
2022/05/17 07:15:10;;;;;;;12.18;5.18;;;;;;;24.12;51.13;98442.81;6240144;23;20222;-61
2022/05/17 07:17:36;;;;;;;10.68;5.75;;;;;;;24.20;51.45;98440.88;6238344;22;20590;-60
2022/05/17 07:20:02;;;;;;;7.95;5.50;;;;;;;24.34;51.42;98447.94;6225959;23;20671;-60
2022/05/17 07:22:27;;;;;;;9.60;5.22;;;;;;;24.41;52.27;98442.69;6228875;22;20157;-60
2022/05/17 07:24:53;;;;;;;8.70;5.50;;;;;;;24.52;51.38;98434.22;6237310;23;20228;-60
2022/05/17 07:27:19;;;;;;;11.18;5.53;;;;;;;24.58;51.71;98436.97;6239936;23;20163;-61
2022/05/17 07:29:44;;;;;;;13.25;5.50;;;;;;;24.64;52.19;98436.19;6240076;22;20144;-61
2022/05/17 07:32:10;;;;;;;14.13;5.85;;;;;;;24.72;52.49;98433.38;6240248;22;20148;-61
2022/05/17 07:34:35;;;;;;;8.85;5.22;;;;;;;24.78;52.24;98432.63;6240211;22;20183;-60
2022/05/17 07:37:01;;;;;;;7.88;5.32;;;;;;;24.76;51.51;98432.00;6240154;23;20182;-61
2022/05/17 07:39:27;;;;;;;12.10;5.40;;;;;;;24.86;52.33;98431.66;6232369;22;20549;-60
2022/05/17 07:41:52;;;;;;;9.88;5.07;;;;;;;24.90;51.81;98431.06;6227249;22;20156;-61
2022/05/17 07:44:18;;;;;;;6.50;4.50;;;;;;;24.90;50.55;98428.41;6230047;23;20315;-60
2022/05/17 07:46:43;;;;;;;11.23;5.00;;;;;;;24.94;51.45;98434.13;6239784;22;20148;-60
2022/05/17 07:49:09;;;;;;;10.68;5.25;;;;;;;24.97;50.95;98431.13;6239981;23;20148;-61
2022/05/17 07:51:35;;;;;;;11.63;5.22;;;;;;;24.94;50.98;98420.91;6240148;22;20152;-60
2022/05/17 07:54:01;;;;;;;11.85;5.43;;;;;;;24.69;50.74;98415.25;6239304;22;20872;-61
2022/05/17 07:56:27;;;;;;;8.90;6.03;;;;;;;24.64;51.09;98422.97;6239821;22;20148;-60
2022/05/17 07:58:52;;;;;;;6.90;5.40;;;;;;;24.66;51.92;98420.94;6240056;22;20231;-61
2022/05/17 08:01:18;;;;;;;13.93;5.97;;;;;;;24.82;52.16;98420.63;6226995;23;20624;-60
2022/05/17 08:03:43;;;;;;;14.98;5.57;;;;;;;24.96;52.18;98418.91;6227683;22;20176;-61
2022/05/17 08:06:09;;;;;;;10.48;5.75;;;;;;;25.08;51.92;98426.06;6234062;23;20168;-60
2022/05/17 08:08:34;;;;;;;12.68;5.18;;;;;;;25.09;51.58;98416.31;6240431;22;20152;-60
2022/05/17 08:11:01;;;;;;;6.63;5.32;;;;;;;25.10;51.53;98415.28;6239828;23;20228;-61
2022/05/17 08:13:26;;;;;;;8.02;5.00;;;;;;;24.92;51.74;98415.81;6239987;22;20152;-60
2022/05/17 08:15:53;;;;;;;5.72;5.28;;;;;;;24.99;51.83;98411.38;6239662;22;20145;-60
2022/05/17 08:18:19;;;;;;;9.57;5.32;;;;;;;25.13;51.38;98418.38;6239776;22;20609;-61
2022/05/17 08:20:44;;;;;;;5.55;5.00;;;;;;;25.19;51.10;98412.28;6236077;22;20183;-61
2022/05/17 08:23:10;;;;;;;8.13;5.63;;;;;;;25.08;51.37;98375.75;6226648;22;20156;-60
2022/05/17 08:28:20;;;;;;;10.95;5.25;;;;;;;25.39;52.67;98399.16;6238665;23;20148;-61
2022/05/17 08:30:47;;;;;;;6.45;4.78;;;;;;;25.43;51.74;98406.50;6239853;22;20175;-60
2022/05/17 08:33:15;;;;;;;8.27;4.88;;;;;;;25.42;51.70;98396.91;6239840;22;20159;-60
2022/05/17 08:35:44;;;;;;;5.50;5.00;;;;;;;25.49;51.10;98400.41;6239240;22;20187;-61
2022/05/17 08:38:12;;;;;;;12.27;5.28;;;;;;;25.55;50.97;98402.25;6239656;22;20159;-60
2022/05/17 08:40:59;;;;;;;10.02;4.63;;;;;;;25.66;50.32;98403.53;6239031;22;20265;-61
2022/05/17 08:43:49;;;;;;;5.45;5.03;;;;;;;25.74;49.62;98401.50;6224769;23;20361;-60
2022/05/17 08:46:38;;;;;;;7.53;5.32;;;;;;;25.79;50.10;98387.66;6228129;22;20551;-61
2022/05/17 08:49:29;;;;;;;5.55;5.05;;;;;;;25.90;50.81;98389.75;6238081;23;20137;-61
2022/05/17 08:52:09;;;;;;;12.60;5.18;;;;;;;26.01;50.63;98391.78;6239388;22;20167;-60
2022/05/17 08:54:45;;;;;;;6.38;4.63;;;;;;;26.10;49.55;98394.03;6239074;22;20237;-60
2022/05/17 08:57:31;;;;;;;5.18;4.63;;;;;;;26.07;48.94;98391.78;6239437;22;20170;-60
2022/05/17 09:00:08;;;;;;;7.45;5.20;;;;;;;26.06;48.98;98379.53;6222960;23;20196;-60
2022/05/17 09:03:01;;;;;;;7.95;4.70;;;;;;;26.11;49.99;98381.56;6236853;22;20560;-60
2022/05/17 09:05:47;;;;;;;6.22;4.70;;;;;;;26.22;48.63;98378.31;6226380;22;20555;-60
2022/05/17 09:08:32;;;;;;;5.78;4.63;;;;;;;26.21;49.39;98385.47;6228942;22;20396;-60
2022/05/17 09:11:07;;;;;;;5.97;4.18;;;;;;;26.25;48.54;98370.75;6239275;22;20190;-60
2022/05/17 09:13:58;;;;;;;4.63;4.20;;;;;;;26.36;47.83;98374.66;6239422;22;20176;-60
2022/05/17 09:16:37;;;;;;;4.78;4.40;;;;;;;26.47;47.34;98371.38;6239819;22;20163;-60
2022/05/17 09:19:02;;;;;;;5.10;4.63;;;;;;;26.64;47.44;98373.41;6239124;22;20132;-60
2022/05/17 09:21:32;;;;;;;4.68;4.38;;;;;;;26.74;47.52;98367.69;6239130;22;20152;-59
2022/05/17 09:24:01;;;;;;;7.60;4.80;;;;;;;26.82;46.83;98365.63;6234411;22;20664;-60
2022/05/17 09:26:28;;;;;;;5.22;3.88;;;;;;;26.95;45.94;98365.56;6225745;22;20540;-60
2022/05/17 09:29:07;;;;;;;8.90;6.20;;;;;;;27.00;44.89;98357.00;6227854;22;20236;-61
2022/05/17 09:31:36;;;;;;;6.53;4.68;;;;;;;27.10;44.52;98358.19;6238882;22;20172;-61
2022/05/17 09:34:06;;;;;;;6.45;4.20;;;;;;;27.21;43.00;98354.91;6239158;22;20157;-61
2022/05/17 09:36:53;;;;;;;8.65;4.00;;;;;;;27.15;42.60;98352.22;6238923;22;20533;-61
2022/05/17 09:39:23;;;;;;;6.47;3.65;;;;;;;27.25;43.09;98352.63;6239104;22;20199;-61
2022/05/17 09:41:50;;;;;;;4.53;4.05;;;;;;;27.34;41.09;98352.16;6239235;22;20156;-61
2022/05/17 09:44:23;;;;;;;5.93;4.10;;;;;;;27.33;42.07;98349.72;6239306;22;20497;-61
2022/05/17 09:46:51;;;;;;;4.18;3.88;;;;;;;27.39;42.28;98347.03;6224448;22;20152;-60
2022/05/17 09:55:30;;;;;;;6.50;4.55;;;;;;;27.60;43.14;98349.38;6225337;22;20199;-61
2022/05/17 09:57:55;;;;;;;4.82;4.38;;;;;;;27.74;43.10;98339.44;6246961;22;20251;-61
2022/05/17 10:00:27;;;;;;;5.80;4.25;;;;;;;27.90;42.07;98341.63;6238279;22;20216;-61
2022/05/17 10:03:03;;;;;;;4.63;3.53;;;;;;;27.76;37.13;98342.72;6239022;22;20144;-61
2022/05/17 10:05:42;;;;;;;6.68;3.47;;;;;;;27.77;36.65;98344.34;6239217;22;20148;-61
2022/05/17 10:08:14;;;;;;;3.50;3.08;;;;;;;27.76;35.19;98335.53;6224769;22;20180;-61
2022/05/17 10:10:47;;;;;;;4.72;3.13;;;;;;;27.78;35.47;98330.88;6227273;23;20520;-61
2022/05/17 10:13:26;;;;;;;4.75;3.30;;;;;;;28.00;38.03;98334.00;6236358;22;20649;-61
2022/05/17 10:16:02;;;;;;;10.77;3.58;;;;;;;28.21;38.82;98323.75;6238779;22;20141;-61
2022/05/17 10:18:49;;;;;;;5.85;3.65;;;;;;;28.35;38.16;98316.47;6242302;22;20162;-61
2022/05/17 10:21:35;;;;;;;6.22;3.33;;;;;;;28.61;37.55;98322.38;6242836;22;20182;-61
2022/05/17 10:24:12;;;;;;;5.10;3.70;;;;;;;28.79;37.10;98318.94;6242392;22;20136;-61
2022/05/17 10:26:45;;;;;;;7.30;3.72;;;;;;;28.89;34.49;98312.03;6241106;23;20132;-61
2022/05/17 10:29:33;;;;;;;4.10;2.70;;;;;;;29.01;33.47;98312.94;6227998;22;20453;-61
2022/05/17 10:32:06;;;;;;;7.20;3.08;;;;;;;29.11;31.99;98305.22;6231351;22;20463;-61
2022/05/17 10:34:51;;;;;;;4.15;3.50;;;;;;;29.29;33.43;98310.53;6240584;22;20274;-61
2022/05/17 10:37:25;;;;;;;5.72;3.53;;;;;;;29.31;32.74;98307.63;6241858;22;20650;-61
2022/05/17 10:40:04;;;;;;;3.58;3.28;;;;;;;29.55;32.81;98302.19;6241650;22;20297;-58
2022/05/17 10:42:30;;;;;;;4.15;3.25;;;;;;;29.78;32.51;98301.44;6241742;22;20164;-59
2022/05/17 10:44:58;;;;;;;5.10;3.50;;;;;;;29.82;31.58;98300.75;6242076;22;20152;-59
2022/05/17 10:47:47;;;;;;;9.48;3.92;;;;;;;30.13;31.72;98297.00;6242158;22;20156;-58
2022/05/17 10:50:30;;;;;;;3.58;3.28;;;;;;;30.24;31.10;98296.97;6227734;22;20520;-58
2022/05/17 10:53:06;;;;;;;4.22;3.38;;;;;;;30.33;30.51;98298.28;6230488;22;20137;-59
2022/05/17 10:55:50;;;;;;;4.35;3.30;;;;;;;30.43;30.07;98292.34;6240298;22;20160;-58
2022/05/17 10:58:48;;;;;;;4.22;3.45;;;;;;;30.73;30.47;98285.78;6241590;22;20172;-59
2022/05/17 11:01:24;;;;;;;7.88;6.00;;;;;;;30.92;29.59;98286.47;6241896;22;20515;-58
2022/05/17 11:03:59;;;;;;;3.25;3.05;;;;;;;31.08;29.19;98291.84;6241675;22;20141;-61
2022/05/17 11:06:48;;;;;;;6.25;3.22;;;;;;;31.13;28.63;98286.59;6241938;23;20179;-61
2022/05/17 11:09:39;;;;;;;3.42;2.80;;;;;;;31.35;29.22;98276.91;6238148;23;20159;-61
2022/05/17 11:12:11;;;;;;;3.28;2.97;;;;;;;31.62;28.38;98277.94;6228079;23;20156;-59
2022/05/17 11:14:36;;;;;;;3.22;2.97;;;;;;;31.82;29.17;98272.94;6231573;22;20161;-59
2022/05/17 11:17:39;;;;;;;6.90;3.40;;;;;;;32.01;28.25;98271.63;6242031;22;20163;-59
2022/05/17 11:20:05;;;;;;;4.10;3.70;;;;;;;32.14;27.99;98271.31;6241763;23;20196;-59
2022/05/17 11:22:39;;;;;;;5.55;3.08;;;;;;;32.29;27.77;98268.06;6241800;23;20152;-59
2022/05/17 11:25:44;;;;;;;3.45;3.20;;;;;;;32.11;27.13;98261.06;6241749;22;20616;-59
2022/05/17 11:28:24;;;;;;;3.30;2.60;;;;;;;31.90;26.92;98261.84;6241241;22;20144;-59
2022/05/17 11:30:52;;;;;;;7.68;2.72;;;;;;;32.06;27.70;98252.97;6233072;22;20152;-59
2022/05/17 11:33:23;;;;;;;5.82;3.05;;;;;;;32.30;27.51;98249.06;6227183;23;20157;-60
2022/05/17 11:35:59;;;;;;;3.50;2.90;;;;;;;32.04;28.21;98244.38;6230767;22;20573;-59
2022/05/17 11:38:31;;;;;;;3.20;2.88;;;;;;;32.05;28.61;98239.84;6239929;22;20190;-60
2022/05/17 11:40:57;;;;;;;4.70;3.47;;;;;;;32.20;29.11;98235.50;6240077;22;20187;-60
2022/05/17 11:43:43;;;;;;;6.50;2.75;;;;;;;32.27;27.95;98243.38;6240513;22;20494;-60
2022/05/17 11:46:23;;;;;;;5.55;3.08;;;;;;;32.10;26.68;98237.22;6240239;22;20522;-60
2022/05/17 11:48:53;;;;;;;3.08;2.80;;;;;;;32.19;27.07;98225.88;6240146;22;20156;-60
2022/05/17 11:51:19;;;;;;;3.63;2.75;;;;;;;32.13;26.20;98232.19;6236220;22;20625;-60
2022/05/17 11:53:48;;;;;;;4.78;3.17;;;;;;;32.38;25.96;98235.25;6226394;23;20148;-60
2022/05/17 11:56:25;;;;;;;4.78;2.97;;;;;;;32.57;24.72;98227.72;6228703;22;20179;-59
2022/05/17 11:58:51;;;;;;;6.80;2.80;;;;;;;32.60;25.03;98229.91;6239141;22;20148;-60
2022/05/17 12:01:31;;;;;;;9.95;3.90;;;;;;;32.03;25.76;98225.88;6239762;22;21059;-60